createdAt,value
2019-03-11T00:00:50.943Z,99.90
2019-03-11T00:03:21.896Z,98.80
2019-03-11T00:05:52.327Z,98.30
2019-03-11T00:08:22.431Z,98.60
2019-03-11T00:10:52.333Z,98.70
2019-03-11T00:13:22.249Z,98.50
2019-03-11T00:15:52.132Z,98.70
2019-03-11T00:18:21.975Z,98.50
2019-03-11T00:20:52.021Z,98.10
2019-03-11T00:23:21.899Z,98.00
2019-03-11T00:25:51.670Z,98.10
2019-03-11T00:28:21.868Z,97.50
2019-03-11T00:30:51.767Z,97.50
2019-03-11T00:33:21.972Z,97.60
2019-03-11T00:35:51.816Z,97.10
2019-03-11T00:38:21.752Z,97.10
2019-03-11T00:40:51.708Z,96.30
2019-03-11T00:43:21.615Z,96.60
2019-03-11T00:45:51.501Z,96.50
2019-03-11T00:48:21.751Z,96.80
2019-03-11T00:50:51.603Z,96.90
2019-03-11T00:53:21.414Z,96.80
2019-03-11T00:55:51.263Z,97.10
2019-03-11T00:58:21.314Z,97.00
2019-03-11T01:00:55.771Z,96.60
2019-03-11T01:03:25.549Z,96.60
2019-03-11T01:05:55.367Z,96.30
2019-03-11T01:08:25.171Z,96.30
2019-03-11T01:10:55.395Z,96.30
2019-03-11T01:13:25.168Z,95.90
2019-03-11T01:16:13.604Z,96.10
2019-03-11T01:18:43.403Z,96.50
2019-03-11T01:21:13.356Z,97.10
2019-03-11T01:23:43.306Z,97.10
2019-03-11T01:26:13.085Z,96.90
2019-03-11T01:28:42.894Z,96.20
2019-03-11T01:31:12.707Z,96.00
2019-03-11T01:33:44.378Z,95.60
2019-03-11T01:36:13.923Z,95.40
2019-03-11T01:38:43.694Z,96.00
2019-03-11T01:41:13.470Z,95.40
2019-03-11T01:43:43.839Z,95.30
2019-03-11T01:46:13.625Z,95.20
2019-03-11T01:48:43.390Z,95.30
2019-03-11T01:51:13.713Z,96.00
2019-03-11T01:53:43.526Z,96.30
2019-03-11T01:56:13.365Z,97.60
2019-03-11T01:58:43.638Z,98.90
2019-03-11T02:01:13.486Z,99.80
2019-03-11T02:03:43.183Z,99.90
2019-03-11T02:06:13.596Z,99.90
2019-03-11T02:08:43.299Z,99.90
2019-03-11T02:11:13.424Z,99.90
2019-03-11T02:13:43.354Z,99.60
2019-03-11T02:16:13.133Z,99.50
2019-03-11T02:18:42.910Z,99.40
2019-03-11T02:21:13.191Z,99.30
2019-03-11T02:23:43.162Z,98.90
2019-03-11T02:26:13.009Z,98.70
2019-03-11T02:28:43.059Z,98.10
2019-03-11T02:31:12.859Z,98.10
2019-03-11T02:33:42.786Z,98.00
2019-03-11T02:36:13.307Z,97.80
2019-03-11T02:38:43.062Z,97.90
2019-03-11T02:41:12.971Z,97.20
2019-03-11T02:43:42.799Z,97.20
2019-03-11T02:46:12.588Z,97.10
2019-03-11T02:48:42.291Z,97.40
2019-03-11T02:51:12.878Z,97.70
2019-03-11T02:53:44.002Z,98.10
2019-03-11T02:56:13.781Z,98.70
2019-03-11T02:58:43.587Z,99.00
2019-03-11T03:01:17.988Z,99.50
2019-03-11T03:03:50.439Z,99.20
2019-03-11T03:06:20.772Z,98.80
2019-03-11T03:08:50.579Z,98.80
2019-03-11T03:11:20.546Z,99.30
2019-03-11T03:13:50.643Z,99.00
2019-03-11T03:16:20.612Z,99.30
2019-03-11T03:18:50.379Z,98.90
2019-03-11T03:21:20.435Z,99.20
2019-03-11T03:23:51.359Z,99.90
2019-03-11T03:26:21.245Z,99.90
2019-03-11T03:28:51.156Z,99.90
2019-03-11T03:31:21.733Z,99.90
2019-03-11T03:33:52.508Z,99.90
2019-03-11T03:36:22.288Z,99.90
2019-03-11T03:38:52.067Z,99.90
2019-03-11T03:41:22.251Z,99.90
2019-03-11T03:43:52.241Z,99.90
2019-03-11T03:46:22.036Z,99.90
2019-03-11T03:48:52.106Z,99.90
2019-03-11T03:51:22.237Z,99.80
2019-03-11T03:53:52.880Z,99.90
2019-03-11T03:56:22.680Z,99.90
2019-03-11T03:58:52.454Z,99.90
2019-03-11T04:01:22.448Z,99.90
2019-03-11T04:03:52.535Z,99.90
2019-03-11T04:06:22.315Z,99.90
2019-03-11T04:08:52.370Z,99.90
2019-03-11T04:11:22.182Z,98.80
2019-03-11T04:13:52.148Z,98.70
2019-03-11T04:16:22.596Z,98.60
2019-03-11T04:18:53.997Z,98.50
2019-03-11T04:21:24.047Z,98.50
2019-03-11T04:23:53.822Z,98.00
2019-03-11T04:26:26.566Z,98.10
2019-03-11T04:28:56.541Z,97.90
2019-03-11T04:31:26.319Z,97.90
2019-03-11T04:33:56.487Z,97.70
2019-03-11T04:36:26.259Z,97.50
2019-03-11T04:38:56.035Z,97.30
2019-03-11T04:41:26.331Z,97.40
2019-03-11T04:43:56.110Z,97.20
2019-03-11T04:46:25.893Z,97.50
2019-03-11T04:48:56.326Z,97.40
2019-03-11T04:51:26.099Z,97.60
2019-03-11T04:53:57.116Z,97.80
2019-03-11T04:56:26.927Z,98.30
2019-03-11T04:58:59.643Z,98.60
2019-03-11T05:01:29.419Z,98.70
2019-03-11T05:03:59.280Z,98.70
2019-03-11T05:06:29.775Z,98.90
2019-03-11T05:08:59.621Z,99.10
2019-03-11T05:11:29.640Z,99.00
2019-03-11T05:13:59.421Z,99.20
2019-03-11T05:16:29.387Z,98.60
2019-03-11T05:18:59.691Z,98.40
2019-03-11T05:21:29.463Z,98.20
2019-03-11T05:23:59.490Z,98.30
2019-03-11T05:26:29.315Z,99.10
2019-03-11T05:28:59.179Z,99.80
2019-03-11T05:31:29.236Z,99.90
2019-03-11T05:33:59.578Z,99.90
2019-03-11T05:36:29.363Z,99.90
2019-03-11T05:38:59.150Z,99.90
2019-03-11T05:41:29.259Z,99.90
2019-03-11T05:43:58.955Z,99.90
2019-03-11T05:46:28.701Z,99.40
2019-03-11T05:48:59.497Z,99.30
2019-03-11T05:51:31.913Z,99.10
2019-03-11T05:54:01.323Z,99.30
2019-03-11T05:56:31.140Z,99.40
2019-03-11T05:59:00.917Z,99.40
2019-03-11T06:01:30.696Z,99.40
2019-03-11T06:04:00.860Z,99.30
2019-03-11T06:06:30.635Z,99.40
2019-03-11T06:09:00.411Z,99.30
2019-03-11T06:11:30.673Z,99.30
2019-03-11T06:14:00.443Z,99.50
2019-03-11T06:16:30.223Z,99.10
2019-03-11T06:19:00.656Z,99.30
2019-03-11T06:21:38.889Z,98.90
2019-03-11T06:24:08.918Z,98.80
2019-03-11T06:26:38.679Z,98.30
2019-03-11T06:29:08.552Z,98.10
2019-03-11T06:31:38.501Z,97.90
2019-03-11T06:34:08.379Z,97.60
2019-03-11T06:36:38.338Z,97.60
2019-03-11T06:39:11.482Z,97.70
2019-03-11T06:41:41.406Z,97.70
2019-03-11T06:44:11.194Z,97.80
2019-03-11T06:46:40.931Z,97.90
2019-03-11T06:49:10.892Z,97.70
2019-03-11T06:51:40.659Z,97.30
2019-03-11T06:54:10.587Z,97.50
2019-03-11T06:56:40.825Z,97.30
2019-03-11T06:59:10.598Z,97.40
2019-03-11T07:01:40.332Z,97.30
2019-03-11T07:04:10.932Z,96.90
2019-03-11T07:06:40.706Z,96.90
2019-03-11T07:09:10.741Z,96.70
2019-03-11T07:11:40.503Z,96.80
2019-03-11T07:14:10.410Z,96.60
2019-03-11T07:16:40.140Z,97.00
2019-03-11T07:19:09.918Z,96.90
2019-03-11T07:21:40.435Z,96.90
2019-03-11T07:24:10.286Z,96.70
2019-03-11T07:26:40.097Z,96.70
2019-03-11T07:29:09.887Z,96.20
2019-03-11T07:31:39.626Z,96.00
2019-03-11T07:34:09.465Z,95.80
2019-03-11T07:36:39.243Z,96.40
2019-03-11T07:39:09.066Z,95.90
2019-03-11T07:41:39.190Z,96.10
2019-03-11T07:44:09.407Z,95.90
2019-03-11T07:46:39.211Z,95.60
2019-03-11T07:49:09.061Z,95.30
2019-03-11T07:51:38.942Z,95.30
2019-03-11T07:54:08.986Z,95.20
2019-03-11T07:56:38.991Z,94.60
2019-03-11T07:59:08.916Z,93.70
2019-03-11T08:01:38.728Z,93.00
2019-03-11T08:04:08.829Z,92.10
2019-03-11T08:06:38.533Z,91.50
2019-03-11T08:09:08.896Z,91.30
2019-03-11T08:11:38.689Z,90.70
2019-03-11T08:14:08.715Z,89.90
2019-03-11T08:16:38.397Z,86.90
2019-03-11T08:19:08.523Z,85.70
2019-03-11T08:21:38.549Z,86.20
2019-03-11T08:24:08.346Z,85.60
2019-03-11T08:26:38.216Z,84.70
2019-03-11T08:29:08.296Z,83.10
2019-03-11T08:31:38.091Z,82.30
2019-03-11T08:34:08.453Z,81.70
2019-03-11T08:36:38.224Z,82.10
2019-03-11T08:39:10.454Z,82.70
2019-03-11T08:41:40.235Z,85.00
2019-03-11T08:44:10.623Z,86.30
2019-03-11T08:46:40.432Z,85.70
2019-03-11T08:49:10.226Z,86.60
2019-03-11T08:51:40.438Z,84.90
2019-03-11T08:54:10.262Z,85.30
2019-03-11T08:56:40.031Z,84.60
2019-03-11T08:59:10.426Z,84.30
2019-03-11T09:01:40.221Z,84.80
2019-03-11T09:04:09.998Z,83.90
2019-03-11T09:06:40.386Z,84.20
2019-03-11T09:09:12.761Z,82.90
2019-03-11T09:11:42.530Z,84.60
2019-03-11T09:14:13.000Z,86.80
2019-03-11T09:16:44.193Z,87.50
2019-03-11T09:19:13.966Z,87.40
2019-03-11T09:21:43.739Z,86.80
2019-03-11T09:24:19.254Z,87.00
2019-03-11T09:26:46.262Z,87.50
2019-03-11T09:29:16.459Z,87.30
2019-03-11T09:31:46.254Z,88.70
2019-03-11T09:34:16.026Z,86.50
2019-03-11T09:36:54.599Z,85.60
2019-03-11T09:39:24.834Z,85.30
2019-03-11T09:41:54.685Z,84.60
2019-03-11T09:44:24.491Z,85.10
2019-03-11T09:46:54.895Z,86.00
2019-03-11T09:49:24.670Z,85.60
2019-03-11T09:51:54.738Z,84.50
2019-03-11T09:54:24.519Z,84.10
2019-03-11T09:56:54.291Z,83.00
2019-03-11T09:59:24.185Z,79.60
2019-03-11T10:01:54.414Z,76.70
2019-03-11T10:04:26.400Z,78.50
2019-03-11T10:06:56.760Z,78.70
2019-03-11T10:09:26.948Z,76.80
2019-03-11T10:11:56.787Z,76.60
2019-03-11T10:14:26.678Z,73.30
2019-03-11T10:16:56.887Z,73.20
2019-03-11T10:19:26.667Z,69.30
2019-03-11T10:21:56.487Z,68.60
2019-03-11T10:24:26.403Z,67.40
2019-03-11T10:26:56.543Z,67.40
2019-03-11T10:29:26.443Z,67.30
2019-03-11T10:31:56.383Z,62.20
2019-03-11T10:34:26.224Z,62.20
2019-03-11T10:36:56.241Z,58.50
2019-03-11T10:39:26.236Z,56.40
2019-03-11T10:41:56.236Z,54.30
2019-03-11T10:44:26.111Z,53.40
2019-03-11T10:46:56.416Z,51.80
2019-03-11T10:49:26.398Z,49.00
2019-03-11T10:51:56.361Z,47.90
2019-03-11T10:54:27.531Z,46.90
2019-03-11T10:56:57.399Z,45.80
2019-03-11T10:59:27.207Z,44.80
2019-03-11T11:01:57.001Z,45.70
2019-03-11T11:04:27.032Z,45.90
2019-03-11T11:06:57.060Z,44.90
2019-03-11T11:09:26.847Z,45.10
2019-03-11T11:11:56.765Z,42.70
2019-03-11T11:14:26.724Z,41.80
2019-03-11T11:16:56.627Z,40.20
2019-03-11T11:19:26.851Z,39.30
2019-03-11T11:21:56.665Z,41.00
2019-03-11T11:24:26.616Z,41.90
2019-03-11T11:26:56.576Z,42.20
2019-03-11T11:29:26.460Z,40.40
2019-03-11T11:31:56.718Z,38.20
2019-03-11T11:34:26.639Z,39.10
2019-03-11T11:36:56.459Z,38.50
2019-03-11T11:39:26.242Z,34.40
2019-03-11T11:41:56.361Z,33.60
2019-03-11T11:44:28.438Z,33.20
2019-03-11T11:46:58.760Z,31.90
2019-03-11T11:49:28.634Z,31.90
2019-03-11T11:51:58.458Z,34.50
2019-03-11T11:54:28.767Z,35.60
2019-03-11T11:56:58.543Z,37.80
2019-03-11T11:59:28.354Z,37.90
2019-03-11T12:02:03.783Z,35.20
2019-03-11T12:04:31.147Z,35.70
2019-03-11T12:07:01.017Z,34.00
2019-03-11T12:09:30.832Z,37.50
2019-03-11T12:12:01.057Z,38.80
2019-03-11T12:14:31.148Z,41.60
2019-03-11T12:17:00.942Z,44.60
2019-03-11T12:19:30.726Z,43.40
2019-03-11T12:22:00.821Z,45.50
2019-03-11T12:24:31.969Z,45.20
2019-03-11T12:27:01.753Z,42.90
2019-03-11T12:29:31.499Z,41.20
2019-03-11T12:32:01.278Z,40.90
2019-03-11T12:34:31.059Z,42.60
2019-03-11T12:37:01.313Z,42.20
2019-03-11T12:39:31.356Z,38.30
2019-03-11T12:42:01.147Z,39.30
2019-03-11T12:44:30.970Z,41.10
2019-03-11T12:47:00.774Z,39.80
2019-03-11T12:49:30.554Z,36.30
2019-03-11T12:52:05.045Z,36.50
2019-03-11T12:54:34.828Z,37.50
2019-03-11T12:57:04.607Z,35.20
2019-03-11T12:59:40.528Z,33.80
2019-03-11T13:02:05.758Z,33.90
2019-03-11T13:04:35.541Z,34.70
2019-03-11T13:07:05.881Z,32.60
2019-03-11T13:09:35.643Z,32.30
2019-03-11T13:12:05.432Z,32.80
2019-03-11T13:14:36.095Z,33.40
2019-03-11T13:17:06.434Z,31.90
2019-03-11T13:19:36.217Z,30.60
2019-03-11T13:22:06.111Z,30.20
2019-03-11T13:24:38.931Z,29.20
2019-03-11T13:27:08.950Z,29.80
2019-03-11T13:29:38.761Z,29.20
2019-03-11T13:32:08.911Z,29.70
2019-03-11T13:34:38.687Z,28.60
2019-03-11T13:37:08.647Z,28.10
2019-03-11T13:39:38.578Z,28.40
2019-03-11T13:42:08.793Z,28.10
2019-03-11T13:44:38.608Z,27.30
2019-03-11T13:47:08.429Z,26.50
2019-03-11T13:49:38.864Z,26.70
2019-03-11T13:52:09.047Z,28.50
2019-03-11T13:54:38.860Z,29.20
2019-03-11T13:57:08.794Z,31.00
2019-03-11T13:59:38.857Z,35.70
2019-03-11T14:02:08.803Z,40.90
2019-03-11T14:04:41.557Z,44.20
2019-03-11T14:07:10.475Z,45.00
2019-03-11T14:09:40.282Z,45.50
2019-03-11T14:12:10.041Z,45.70
2019-03-11T14:14:40.514Z,38.00
2019-03-11T14:17:11.251Z,34.00
2019-03-11T14:19:41.037Z,30.50
2019-03-11T14:22:10.871Z,29.70
2019-03-11T14:24:40.935Z,32.20
2019-03-11T14:27:10.774Z,34.80
2019-03-11T14:29:40.666Z,33.90
2019-03-11T14:32:11.041Z,31.30
2019-03-11T14:34:40.820Z,31.30
2019-03-11T14:37:10.769Z,31.30
2019-03-11T14:39:41.016Z,30.40
2019-03-11T14:42:10.870Z,31.80
2019-03-11T14:44:40.829Z,31.10
2019-03-11T14:47:10.681Z,35.40
2019-03-11T14:49:40.678Z,37.50
2019-03-11T14:52:10.506Z,40.30
2019-03-11T14:54:40.578Z,41.70
2019-03-11T14:57:10.355Z,43.50
2019-03-11T14:59:40.226Z,45.80
2019-03-11T15:02:10.358Z,47.20
2019-03-11T15:04:40.140Z,47.20
2019-03-11T15:07:10.026Z,46.80
2019-03-11T15:09:50.838Z,48.00
2019-03-11T15:12:11.623Z,48.70
2019-03-11T15:14:41.450Z,51.00
2019-03-11T15:17:11.840Z,52.30
2019-03-11T15:19:41.618Z,53.40
2019-03-11T15:22:11.499Z,52.80
2019-03-11T15:24:41.290Z,52.30
2019-03-11T15:27:11.071Z,52.20
2019-03-11T15:29:40.959Z,53.10
2019-03-11T15:32:10.807Z,54.80
2019-03-11T15:34:40.732Z,54.20
2019-03-11T15:37:10.624Z,54.20
2019-03-11T15:39:40.409Z,53.60
2019-03-11T15:42:10.271Z,54.10
2019-03-11T15:44:40.079Z,54.20
2019-03-11T15:47:09.884Z,55.00
2019-03-11T15:49:39.595Z,56.70
2019-03-11T15:52:09.739Z,56.00
2019-03-11T15:54:39.758Z,57.20
2019-03-11T15:57:09.591Z,55.70
2019-03-11T15:59:39.639Z,56.50
2019-03-11T16:02:09.463Z,56.30
2019-03-11T16:04:39.242Z,56.50
2019-03-11T16:07:14.810Z,57.00
2019-03-11T16:09:44.587Z,56.20
2019-03-11T16:12:14.374Z,56.20
2019-03-11T16:14:49.463Z,58.20
2019-03-11T16:17:15.702Z,56.80
2019-03-11T16:19:45.495Z,57.60
2019-03-11T16:22:22.839Z,55.80
2019-03-11T16:24:46.654Z,55.60
2019-03-11T16:27:16.432Z,57.00
2019-03-11T16:29:46.268Z,56.60
2019-03-11T16:32:16.461Z,57.60
2019-03-11T16:34:46.271Z,58.10
2019-03-11T16:37:16.076Z,57.50
2019-03-11T16:39:46.323Z,57.60
2019-03-11T16:42:16.217Z,58.00
2019-03-11T16:44:46.049Z,59.90
2019-03-11T16:47:16.828Z,61.20
2019-03-11T16:49:46.558Z,62.00
2019-03-11T16:52:16.417Z,61.60
2019-03-11T16:54:46.153Z,60.00
2019-03-11T16:57:16.912Z,59.70
2019-03-11T16:59:46.757Z,60.10
2019-03-11T17:02:16.609Z,61.60
2019-03-11T17:04:47.077Z,61.40
2019-03-11T17:07:16.895Z,63.00
2019-03-11T17:09:46.832Z,63.80
2019-03-11T17:12:17.127Z,66.30
2019-03-11T17:14:46.942Z,66.90
2019-03-11T17:17:16.734Z,66.10
2019-03-11T17:19:46.921Z,65.50
2019-03-11T17:22:16.735Z,66.30
2019-03-11T17:24:46.507Z,66.50
2019-03-11T17:27:16.944Z,67.00
2019-03-11T17:29:46.772Z,67.50
2019-03-11T17:32:16.535Z,68.30
2019-03-11T17:34:46.330Z,69.60
2019-03-11T17:37:16.480Z,69.70
2019-03-11T17:39:46.255Z,70.10
2019-03-11T17:42:17.098Z,69.70
2019-03-11T17:44:47.061Z,70.40
2019-03-11T17:47:16.822Z,70.70
2019-03-11T17:49:47.031Z,70.50
2019-03-11T17:52:16.847Z,70.40
2019-03-11T17:54:46.630Z,71.10
2019-03-11T17:57:16.947Z,72.30
2019-03-11T17:59:46.775Z,72.10
2019-03-11T18:02:16.682Z,72.20
2019-03-11T18:04:46.878Z,72.00
2019-03-11T18:07:16.702Z,71.90
2019-03-11T18:09:46.480Z,72.70
2019-03-11T18:12:17.509Z,73.60
2019-03-11T18:14:47.561Z,72.80
2019-03-11T18:17:17.390Z,73.50
2019-03-11T18:19:47.158Z,73.70
2019-03-11T18:22:17.173Z,73.90
2019-03-11T18:24:47.014Z,74.30
2019-03-11T18:27:16.813Z,75.00
2019-03-11T18:29:46.626Z,75.50
2019-03-11T18:32:16.527Z,75.60
2019-03-11T18:34:46.577Z,76.20
2019-03-11T18:37:16.390Z,76.40
2019-03-11T18:39:46.153Z,77.20
2019-03-11T18:42:24.888Z,77.10
2019-03-11T18:44:47.955Z,77.30
2019-03-11T18:47:17.915Z,77.60
2019-03-11T18:49:47.691Z,77.90
2019-03-11T18:52:17.503Z,78.60
2019-03-11T18:54:47.790Z,78.70
2019-03-11T18:57:17.667Z,79.20
2019-03-11T18:59:47.455Z,79.50
2019-03-11T19:02:17.463Z,80.00
2019-03-11T19:04:47.218Z,81.00
2019-03-11T19:07:17.056Z,80.40
2019-03-11T19:09:46.877Z,80.50
2019-03-11T19:12:17.421Z,80.70
2019-03-11T19:14:47.258Z,81.30
2019-03-11T19:17:17.119Z,81.50
2019-03-11T19:19:46.968Z,81.50
2019-03-11T19:22:16.718Z,81.90
2019-03-11T19:24:46.537Z,82.80
2019-03-11T19:27:16.321Z,82.30
2019-03-11T19:29:46.115Z,82.70
2019-03-11T19:32:15.909Z,82.80
2019-03-11T19:34:46.195Z,83.50
2019-03-11T19:37:16.197Z,83.00
2019-03-11T19:39:46.824Z,83.60
2019-03-11T19:42:16.643Z,83.40
2019-03-11T19:44:47.470Z,83.30
2019-03-11T19:47:17.494Z,84.10
2019-03-11T19:49:47.263Z,83.80
2019-03-11T19:52:17.104Z,84.50
2019-03-11T19:54:47.232Z,84.80
2019-03-11T19:57:17.042Z,84.90
2019-03-11T19:59:46.818Z,84.90
2019-03-11T20:02:16.603Z,84.90
2019-03-11T20:04:46.374Z,85.10
2019-03-11T20:07:16.328Z,86.00
2019-03-11T20:09:46.181Z,85.40
2019-03-11T20:12:16.639Z,85.60
2019-03-11T20:14:46.427Z,85.80
2019-03-11T20:17:17.508Z,85.70
2019-03-11T20:19:47.655Z,86.50
2019-03-11T20:22:17.509Z,86.50
2019-03-11T20:24:47.505Z,86.80
2019-03-11T20:27:17.318Z,87.00
2019-03-11T20:29:47.247Z,87.00
2019-03-11T20:32:18.254Z,87.00
2019-03-11T20:34:47.984Z,87.10
2019-03-11T20:37:17.902Z,87.10
2019-03-11T20:39:47.878Z,87.10
2019-03-11T20:42:17.889Z,87.70
2019-03-11T20:44:47.687Z,87.30
2019-03-11T20:47:17.826Z,87.50
2019-03-11T20:49:47.665Z,87.90
2019-03-11T20:52:17.487Z,87.70
2019-03-11T20:54:47.526Z,88.70
2019-03-11T20:57:17.253Z,88.90
2019-03-11T20:59:47.114Z,88.60
2019-03-11T21:02:17.580Z,89.10
2019-03-11T21:04:47.367Z,89.70
2019-03-11T21:07:17.332Z,90.20
2019-03-11T21:09:47.500Z,90.10
2019-03-11T21:12:17.435Z,90.20
2019-03-11T21:14:47.223Z,90.30
2019-03-11T21:17:25.747Z,90.40
2019-03-11T21:19:54.879Z,90.30
2019-03-11T21:22:24.829Z,90.40
2019-03-11T21:24:59.480Z,90.20
2019-03-11T21:27:26.016Z,90.20
2019-03-11T21:29:55.822Z,90.50
2019-03-11T21:32:25.638Z,90.40
2019-03-11T21:34:55.527Z,90.50
2019-03-11T21:37:25.293Z,90.70
2019-03-11T21:39:55.596Z,91.20
2019-03-11T21:42:25.454Z,91.70
2019-03-11T21:44:55.321Z,91.90
2019-03-11T21:47:25.203Z,92.20
2019-03-11T21:49:54.921Z,92.80
2019-03-11T21:52:24.710Z,93.50
2019-03-11T21:54:55.167Z,93.70
2019-03-11T21:57:24.947Z,94.50
2019-03-11T21:59:55.007Z,94.90
2019-03-11T22:02:26.776Z,95.20
2019-03-11T22:04:56.757Z,95.40
2019-03-11T22:07:26.527Z,95.90
2019-03-11T22:09:56.308Z,96.10
2019-03-11T22:12:26.138Z,95.90
2019-03-11T22:14:56.211Z,96.00
2019-03-11T22:17:25.989Z,96.00
2019-03-11T22:19:55.983Z,96.10
2019-03-11T22:22:28.304Z,95.60
2019-03-11T22:24:58.084Z,95.60
2019-03-11T22:27:28.779Z,95.70
2019-03-11T22:29:58.542Z,95.90
2019-03-11T22:32:28.396Z,95.50
2019-03-11T22:35:11.667Z,95.80
2019-03-11T22:37:30.123Z,95.80
2019-03-11T22:39:59.899Z,96.10
2019-03-11T22:42:29.859Z,95.60
2019-03-11T22:44:59.875Z,95.50
2019-03-11T22:47:29.871Z,95.50
2019-03-11T22:49:59.679Z,95.50
2019-03-11T22:52:29.452Z,95.40
2019-03-11T22:55:00.115Z,95.50
2019-03-11T22:57:30.032Z,95.50
2019-03-11T23:00:00.533Z,95.80
2019-03-11T23:02:30.378Z,96.00
2019-03-11T23:05:00.393Z,96.10
2019-03-11T23:07:31.187Z,96.70
2019-03-11T23:10:02.977Z,96.70
2019-03-11T23:12:32.839Z,97.20
2019-03-11T23:15:03.266Z,97.40
2019-03-11T23:17:33.040Z,97.30
2019-03-11T23:20:02.842Z,98.10
2019-03-11T23:22:32.630Z,97.90
2019-03-11T23:25:02.410Z,98.40
2019-03-11T23:27:35.008Z,99.00
2019-03-11T23:30:05.112Z,99.60
2019-03-11T23:32:35.183Z,99.40
2019-03-11T23:35:06.191Z,99.30
2019-03-11T23:37:35.891Z,99.00
2019-03-11T23:40:08.484Z,99.00
2019-03-11T23:42:39.282Z,99.60
2019-03-11T23:45:11.410Z,98.60
2019-03-11T23:47:41.721Z,99.20
2019-03-11T23:50:14.146Z,98.70
2019-03-11T23:52:43.778Z,98.70
2019-03-11T23:55:14.153Z,98.80
2019-03-11T23:57:43.954Z,98.60
